createdAt,value
2022-09-30T00:01:39.201Z,11.60
2022-09-30T00:09:12.843Z,11.70
2022-09-30T00:11:41.171Z,11.70
2022-09-30T00:14:12.761Z,11.70
2022-09-30T00:16:40.032Z,11.70
2022-09-30T00:19:08.172Z,11.60
2022-09-30T00:21:35.629Z,11.60
2022-09-30T00:24:03.791Z,11.60
2022-09-30T00:31:35.891Z,11.50
2022-09-30T00:34:07.278Z,11.60
2022-09-30T00:36:37.729Z,11.80
2022-09-30T00:39:07.909Z,11.90
2022-09-30T00:41:35.798Z,12.10
2022-09-30T00:44:03.352Z,12.20
2022-09-30T00:46:39.780Z,12.10
2022-09-30T00:54:18.489Z,12.00
2022-09-30T00:56:51.808Z,12.40
2022-09-30T00:59:24.870Z,12.50
2022-09-30T01:01:52.171Z,12.60
2022-09-30T01:04:22.758Z,12.50
2022-09-30T01:06:50.558Z,12.20
2022-09-30T01:15:10.028Z,12.20
2022-09-30T01:17:48.201Z,11.90
2022-09-30T01:20:34.707Z,12.00
2022-09-30T01:23:32.690Z,12.10
2022-09-30T01:26:37.932Z,12.10
2022-09-30T01:29:41.061Z,12.10
2022-09-30T01:32:21.570Z,12.10
2022-09-30T01:40:02.910Z,12.40
2022-09-30T01:42:38.732Z,12.20
2022-09-30T01:45:11.286Z,12.20
2022-09-30T01:47:48.981Z,12.20
2022-09-30T01:50:22.689Z,12.10
2022-09-30T01:52:57.198Z,12.10
2022-09-30T01:55:33.248Z,12.30
2022-09-30T02:03:11.518Z,12.40
2022-09-30T02:05:43.553Z,12.20
2022-09-30T02:08:17.041Z,12.30
2022-09-30T02:10:53.081Z,12.20
2022-09-30T02:13:28.020Z,12.10
2022-09-30T02:15:59.606Z,12.30
2022-09-30T02:18:32.019Z,12.20
2022-09-30T02:26:07.879Z,12.20
2022-09-30T02:28:39.598Z,12.00
2022-09-30T02:31:10.633Z,11.80
2022-09-30T02:33:41.479Z,11.70
2022-09-30T02:36:15.718Z,11.50
2022-09-30T02:38:47.060Z,11.40
2022-09-30T02:41:21.209Z,11.30
2022-09-30T02:46:41.689Z,11.30
2022-09-30T02:49:17.129Z,11.20
2022-09-30T02:51:59.318Z,11.20
2022-09-30T02:54:35.518Z,11.10
2022-09-30T02:57:15.319Z,11.00
2022-09-30T02:59:43.238Z,11.00
2022-09-30T03:02:11.361Z,11.00
2022-09-30T03:09:47.075Z,11.00
2022-09-30T03:12:26.826Z,11.10
2022-09-30T03:15:17.448Z,10.90
2022-09-30T03:18:02.761Z,10.90
2022-09-30T03:20:44.382Z,10.90
2022-09-30T03:23:29.401Z,10.90
2022-09-30T03:26:05.622Z,10.80
2022-09-30T03:31:40.680Z,10.70
2022-09-30T03:34:19.880Z,10.60
2022-09-30T03:37:03.986Z,10.50
2022-09-30T03:39:43.439Z,10.60
2022-09-30T03:42:20.656Z,10.70
2022-09-30T03:44:59.410Z,10.70
2022-09-30T03:47:30.891Z,10.70
2022-09-30T03:55:03.290Z,10.70
2022-09-30T03:57:33.386Z,10.70
2022-09-30T04:00:01.504Z,10.70
2022-09-30T04:02:29.141Z,10.60
2022-09-30T04:04:57.210Z,10.60
2022-09-30T04:07:24.930Z,10.60
2022-09-30T04:09:52.668Z,10.60
2022-09-30T04:15:31.979Z,10.70
2022-09-30T04:17:59.393Z,10.80
2022-09-30T04:20:27.240Z,10.80
2022-09-30T04:22:57.103Z,10.80
2022-09-30T04:25:24.519Z,10.80
2022-09-30T04:27:52.257Z,10.70
2022-09-30T04:30:24.568Z,10.70
2022-09-30T04:36:05.218Z,10.80
2022-09-30T04:38:33.708Z,10.80
2022-09-30T04:41:06.689Z,10.80
2022-09-30T04:43:37.046Z,11.00
2022-09-30T04:46:04.410Z,11.30
2022-09-30T04:48:32.266Z,11.60
2022-09-30T04:51:00.208Z,11.70
2022-09-30T04:59:20.157Z,11.80
2022-09-30T05:01:47.503Z,11.70
2022-09-30T05:04:15.713Z,11.50
2022-09-30T05:07:10.142Z,11.50
2022-09-30T05:09:38.596Z,11.40
2022-09-30T05:12:06.177Z,11.30
2022-09-30T05:14:34.538Z,11.10
2022-09-30T05:20:10.572Z,11.00
2022-09-30T05:22:41.478Z,11.00
2022-09-30T05:25:09.471Z,11.00
2022-09-30T05:27:36.778Z,10.90
2022-09-30T05:30:06.378Z,10.80
2022-09-30T05:32:34.150Z,10.80
2022-09-30T05:35:03.368Z,10.80
2022-09-30T05:40:25.490Z,10.90
2022-09-30T05:42:52.960Z,11.00
2022-09-30T05:45:20.271Z,11.20
2022-09-30T05:47:52.148Z,11.20
2022-09-30T05:50:19.999Z,11.40
2022-09-30T05:52:48.431Z,11.50
2022-09-30T05:55:16.949Z,11.60
2022-09-30T06:03:37.819Z,11.70
2022-09-30T06:06:06.448Z,11.70
2022-09-30T06:08:34.634Z,11.70
2022-09-30T06:11:02.712Z,11.70
2022-09-30T06:13:29.730Z,11.60
2022-09-30T06:15:57.912Z,11.60
2022-09-30T06:18:25.601Z,11.50
2022-09-30T06:25:46.336Z,11.40
2022-09-30T06:28:14.279Z,11.10
2022-09-30T06:30:42.241Z,11.00
2022-09-30T06:33:09.638Z,11.10
2022-09-30T06:35:38.057Z,11.40
2022-09-30T06:38:05.989Z,11.50
2022-09-30T06:40:33.330Z,11.60
2022-09-30T06:45:45.591Z,11.60
2022-09-30T06:48:13.088Z,11.80
2022-09-30T06:50:42.486Z,11.90
2022-09-30T06:53:15.581Z,11.80
2022-09-30T06:55:43.060Z,11.80
2022-09-30T06:58:15.022Z,12.00
2022-09-30T07:00:43.338Z,12.10
2022-09-30T07:06:08.550Z,12.30
2022-09-30T07:08:38.351Z,12.20
2022-09-30T07:11:12.092Z,12.40
2022-09-30T07:13:39.718Z,12.60
2022-09-30T07:16:08.273Z,12.70
2022-09-30T07:18:37.018Z,12.40
2022-09-30T07:21:05.198Z,12.70
2022-09-30T07:29:09.039Z,13.10
2022-09-30T07:31:38.113Z,12.80
2022-09-30T07:34:07.858Z,12.70
2022-09-30T07:36:37.235Z,12.90
2022-09-30T07:39:08.731Z,13.10
2022-09-30T07:41:38.822Z,13.20
2022-09-30T07:44:12.999Z,13.10
2022-09-30T07:50:35.172Z,13.80
2022-09-30T07:53:02.380Z,13.70
2022-09-30T07:55:29.992Z,14.10
2022-09-30T07:57:57.401Z,14.40
2022-09-30T08:00:42.855Z,14.60
2022-09-30T08:03:11.311Z,14.80
2022-09-30T08:11:17.991Z,14.70
2022-09-30T08:13:45.299Z,15.20
2022-09-30T08:16:12.664Z,15.00
2022-09-30T08:18:39.996Z,15.10
2022-09-30T08:21:08.635Z,15.40
2022-09-30T08:23:36.100Z,14.90
2022-09-30T08:26:05.339Z,15.00
2022-09-30T08:32:24.773Z,15.10
2022-09-30T08:34:52.626Z,15.30
2022-09-30T08:37:22.861Z,15.70
2022-09-30T08:39:51.001Z,16.00
2022-09-30T08:42:39.534Z,16.50
2022-09-30T08:45:20.461Z,16.60
2022-09-30T08:47:55.999Z,16.50
2022-09-30T08:58:29.301Z,17.20
2022-09-30T09:01:01.932Z,16.50
2022-09-30T09:03:31.270Z,16.40
2022-09-30T09:06:09.382Z,16.70
2022-09-30T09:08:55.250Z,16.80
2022-09-30T09:11:42.730Z,16.60
2022-09-30T09:14:24.149Z,16.30
2022-09-30T09:22:01.640Z,17.40
2022-09-30T09:24:30.801Z,17.60
2022-09-30T09:26:59.608Z,17.50
2022-09-30T09:29:37.261Z,16.70
2022-09-30T09:32:13.111Z,16.70
2022-09-30T09:34:41.626Z,17.00
2022-09-30T09:37:18.349Z,16.80
2022-09-30T09:47:59.819Z,17.40
2022-09-30T09:50:35.215Z,17.80
2022-09-30T09:53:17.221Z,17.80
2022-09-30T09:55:44.620Z,17.80
2022-09-30T09:58:15.988Z,17.80
2022-09-30T10:00:57.657Z,17.80
2022-09-30T10:03:28.650Z,17.70
2022-09-30T10:09:26.439Z,17.80
2022-09-30T10:12:29.432Z,17.80
2022-09-30T10:15:01.235Z,17.90
2022-09-30T10:17:30.980Z,17.90
2022-09-30T10:20:06.071Z,17.80
2022-09-30T10:22:36.099Z,17.80
2022-09-30T10:25:20.973Z,16.90
2022-09-30T10:30:56.408Z,17.50
2022-09-30T10:33:29.350Z,17.40
2022-09-30T10:36:09.898Z,17.60
2022-09-30T10:38:45.500Z,17.80
2022-09-30T10:41:13.851Z,17.90
2022-09-30T10:43:46.593Z,18.10
2022-09-30T10:49:26.209Z,18.10
2022-09-30T10:51:54.244Z,18.10
2022-09-30T10:54:50.388Z,18.10
2022-09-30T10:57:23.112Z,18.10
2022-09-30T10:59:56.690Z,18.10
2022-09-30T11:02:32.453Z,18.10
2022-09-30T11:10:32.149Z,17.80
2022-09-30T11:13:06.882Z,17.50
2022-09-30T11:15:43.352Z,17.50
2022-09-30T11:18:20.581Z,17.50
2022-09-30T11:20:57.071Z,17.60
2022-09-30T11:23:32.219Z,17.60
2022-09-30T11:26:08.113Z,17.60
2022-09-30T11:34:24.719Z,17.50
2022-09-30T11:36:59.475Z,17.30
2022-09-30T11:39:48.285Z,17.30
2022-09-30T11:42:24.882Z,17.40
2022-09-30T11:45:01.736Z,17.30
2022-09-30T11:47:45.511Z,17.40
2022-09-30T11:50:33.944Z,17.40
2022-09-30T11:58:36.296Z,17.20
2022-09-30T12:01:07.460Z,17.30
2022-09-30T12:03:41.460Z,17.20
2022-09-30T12:06:16.140Z,17.30
2022-09-30T12:08:50.310Z,17.20
2022-09-30T12:11:21.641Z,17.00
2022-09-30T12:13:55.871Z,17.10
2022-09-30T12:21:29.658Z,17.20
2022-09-30T12:24:03.580Z,17.30
2022-09-30T12:26:32.800Z,17.40
2022-09-30T12:29:19.912Z,17.40
2022-09-30T12:32:21.018Z,17.40
2022-09-30T12:35:01.517Z,17.30
2022-09-30T12:37:43.689Z,17.30
2022-09-30T12:45:47.953Z,17.20
2022-09-30T12:48:21.410Z,17.30
2022-09-30T12:50:53.300Z,17.40
2022-09-30T12:53:26.572Z,17.70
2022-09-30T12:55:55.469Z,17.90
2022-09-30T12:58:30.462Z,17.70
2022-09-30T13:07:31.959Z,17.50
2022-09-30T13:10:23.949Z,17.40
2022-09-30T13:13:18.470Z,17.40
2022-09-30T13:15:47.196Z,17.50
2022-09-30T13:18:52.430Z,17.60
2022-09-30T13:21:25.415Z,17.70
2022-09-30T13:29:38.950Z,17.70
2022-09-30T13:32:34.770Z,17.60
2022-09-30T13:35:27.131Z,17.60
2022-09-30T13:38:20.803Z,17.50
2022-09-30T13:41:02.432Z,17.40
2022-09-30T13:43:37.910Z,17.40
2022-09-30T13:51:16.048Z,17.50
2022-09-30T13:53:48.681Z,17.50
2022-09-30T13:56:21.098Z,17.70
2022-09-30T13:59:09.533Z,17.70
2022-09-30T14:02:06.132Z,17.50
2022-09-30T14:04:50.781Z,17.50
2022-09-30T14:07:37.473Z,17.40
2022-09-30T14:15:58.225Z,17.40
2022-09-30T14:18:47.604Z,17.40
2022-09-30T14:21:35.931Z,17.40
2022-09-30T14:24:10.110Z,17.40
2022-09-30T14:26:52.390Z,17.50
2022-09-30T14:29:28.300Z,17.60
2022-09-30T14:39:57.009Z,17.50
2022-09-30T14:42:31.023Z,17.70
2022-09-30T14:45:03.951Z,17.70
2022-09-30T14:47:39.368Z,17.70
2022-09-30T14:50:19.312Z,17.60
2022-09-30T14:52:48.048Z,17.40
2022-09-30T14:55:27.005Z,17.60
2022-09-30T15:00:35.978Z,17.40
2022-09-30T15:03:04.008Z,17.30
2022-09-30T15:05:31.800Z,17.20
2022-09-30T15:07:59.312Z,17.00
2022-09-30T15:10:28.739Z,16.70
2022-09-30T15:13:01.202Z,16.70
2022-09-30T15:15:41.321Z,16.70
2022-09-30T15:18:31.040Z,16.70
2022-09-30T15:28:59.308Z,17.00
2022-09-30T15:31:35.227Z,16.90
2022-09-30T15:34:10.839Z,16.90
2022-09-30T15:36:39.651Z,16.90
2022-09-30T15:39:17.071Z,16.80
2022-09-30T15:41:47.029Z,16.70
2022-09-30T15:44:20.520Z,16.80
2022-09-30T15:52:42.989Z,16.80
2022-09-30T15:55:42.249Z,16.70
2022-09-30T15:58:38.001Z,16.50
2022-09-30T16:01:20.063Z,16.50
2022-09-30T16:04:04.549Z,16.50
2022-09-30T16:06:35.529Z,16.30
2022-09-30T16:09:09.002Z,16.20
2022-09-30T16:16:42.124Z,16.00
2022-09-30T16:19:17.966Z,15.90
2022-09-30T16:21:51.905Z,16.00
2022-09-30T16:24:47.685Z,16.10
2022-09-30T16:27:28.982Z,16.00
2022-09-30T16:29:57.469Z,15.90
2022-09-30T16:32:33.000Z,15.80
2022-09-30T16:37:50.225Z,15.70
2022-09-30T16:40:27.521Z,15.70
2022-09-30T16:43:14.095Z,15.60
2022-09-30T16:45:46.018Z,15.60
2022-09-30T16:48:20.365Z,15.60
2022-09-30T16:50:53.460Z,15.50
2022-09-30T16:53:22.769Z,15.60
2022-09-30T17:01:00.719Z,15.50
2022-09-30T17:03:28.988Z,15.40
2022-09-30T17:06:01.599Z,15.30
2022-09-30T17:08:32.551Z,15.20
2022-09-30T17:11:05.234Z,15.20
2022-09-30T17:13:33.209Z,15.10
2022-09-30T17:16:02.114Z,15.00
2022-09-30T17:23:38.811Z,15.00
2022-09-30T17:26:09.961Z,14.90
2022-09-30T17:28:40.458Z,14.80
2022-09-30T17:31:13.872Z,14.70
2022-09-30T17:33:42.502Z,14.70
2022-09-30T17:36:14.451Z,14.60
2022-09-30T17:38:43.679Z,14.50
2022-09-30T17:44:13.738Z,14.60
2022-09-30T17:46:45.860Z,14.40
2022-09-30T17:49:23.430Z,14.40
2022-09-30T17:51:51.728Z,14.40
2022-09-30T17:54:26.582Z,14.40
2022-09-30T17:56:54.384Z,14.40
2022-09-30T17:59:26.104Z,14.40
2022-09-30T18:07:04.663Z,14.30
2022-09-30T18:09:33.843Z,14.10
2022-09-30T18:12:04.863Z,14.10
2022-09-30T18:14:43.150Z,14.10
2022-09-30T18:17:16.514Z,14.10
2022-09-30T18:19:48.163Z,14.10
2022-09-30T18:22:34.622Z,14.10
2022-09-30T18:33:42.374Z,14.10
2022-09-30T18:36:11.705Z,13.80
2022-09-30T18:38:46.529Z,13.60
2022-09-30T18:41:17.886Z,13.50
2022-09-30T18:43:47.136Z,13.60
2022-09-30T18:46:19.278Z,13.50
2022-09-30T18:48:53.442Z,13.60
2022-09-30T18:56:33.052Z,13.50
2022-09-30T18:59:09.298Z,13.50
2022-09-30T19:01:41.107Z,13.50
2022-09-30T19:04:14.595Z,13.50
2022-09-30T19:06:48.454Z,13.40
2022-09-30T19:09:20.590Z,13.40
2022-09-30T19:11:51.064Z,13.50
2022-09-30T19:14:21.282Z,13.50
2022-09-30T19:22:01.178Z,13.50
2022-09-30T19:24:29.514Z,13.40
2022-09-30T19:26:59.112Z,13.50
2022-09-30T19:29:30.575Z,13.50
2022-09-30T19:32:17.567Z,13.60
2022-09-30T19:35:00.674Z,13.50
2022-09-30T19:37:34.035Z,13.30
2022-09-30T19:43:08.323Z,13.20
2022-09-30T19:45:38.382Z,13.30
2022-09-30T19:48:07.093Z,13.20
2022-09-30T19:50:36.386Z,13.20
2022-09-30T19:53:04.634Z,13.10
2022-09-30T19:55:44.501Z,13.20
2022-09-30T19:58:14.978Z,13.20
2022-09-30T20:05:44.161Z,13.10
2022-09-30T20:08:11.717Z,13.10
2022-09-30T20:10:39.053Z,13.00
2022-09-30T20:13:06.526Z,12.90
2022-09-30T20:15:51.984Z,13.00
2022-09-30T20:18:20.044Z,13.00
2022-09-30T20:20:49.452Z,13.00
2022-09-30T20:28:24.608Z,13.00
2022-09-30T20:30:52.785Z,12.90
2022-09-30T20:33:24.136Z,12.90
2022-09-30T20:35:51.907Z,12.90
2022-09-30T20:38:24.551Z,12.90
2022-09-30T20:40:56.868Z,12.90
2022-09-30T20:43:29.829Z,12.90
2022-09-30T20:50:44.712Z,12.80
2022-09-30T20:53:13.654Z,12.90
2022-09-30T20:55:43.854Z,12.80
2022-09-30T20:58:14.462Z,12.80
2022-09-30T21:00:42.852Z,12.70
2022-09-30T21:03:13.275Z,12.50
2022-09-30T21:05:42.226Z,12.60
2022-09-30T21:08:10.714Z,12.50
2022-09-30T21:15:16.087Z,12.40
2022-09-30T21:17:45.509Z,12.60
2022-09-30T21:20:13.573Z,12.60
2022-09-30T21:22:42.675Z,12.50
2022-09-30T21:25:13.229Z,12.60
2022-09-30T21:27:41.252Z,12.70
2022-09-30T21:30:11.096Z,12.70
2022-09-30T21:35:27.369Z,12.70
2022-09-30T21:37:54.743Z,12.80
2022-09-30T21:40:21.678Z,12.70
2022-09-30T21:42:48.933Z,12.70
2022-09-30T21:45:16.570Z,12.60
2022-09-30T21:47:44.021Z,12.60
2022-09-30T21:50:11.372Z,12.70
2022-09-30T21:55:20.570Z,12.40
2022-09-30T21:57:47.695Z,12.30
2022-09-30T22:00:16.842Z,12.30
2022-09-30T22:02:45.695Z,12.40
2022-09-30T22:05:13.223Z,12.40
2022-09-30T22:07:41.624Z,12.50
2022-09-30T22:10:10.282Z,12.40
2022-09-30T22:20:29.737Z,12.30
2022-09-30T22:22:59.028Z,12.40
2022-09-30T22:25:30.075Z,12.40
2022-09-30T22:27:57.465Z,12.40
2022-09-30T22:30:29.423Z,12.50
2022-09-30T22:33:11.134Z,12.50
2022-09-30T22:35:57.335Z,12.50
2022-09-30T22:38:24.995Z,12.50
2022-09-30T22:46:04.025Z,12.60
2022-09-30T22:48:32.842Z,12.60
2022-09-30T22:51:01.034Z,12.50
2022-09-30T22:53:29.297Z,12.50
2022-09-30T22:55:57.298Z,12.50
2022-09-30T22:58:24.720Z,12.40
2022-09-30T23:00:54.345Z,12.40
2022-09-30T23:03:24.953Z,12.40
2022-09-30T23:10:59.763Z,12.40
2022-09-30T23:13:30.646Z,12.30
2022-09-30T23:15:59.449Z,12.20
2022-09-30T23:18:27.231Z,12.20
2022-09-30T23:20:56.557Z,12.30
2022-09-30T23:23:31.214Z,12.30
2022-09-30T23:26:02.071Z,12.30
2022-09-30T23:31:10.362Z,12.20
2022-09-30T23:33:39.124Z,12.40
2022-09-30T23:36:07.623Z,12.50
2022-09-30T23:38:34.899Z,12.50
2022-09-30T23:41:02.574Z,12.40
2022-09-30T23:43:31.885Z,12.40
2022-09-30T23:45:59.970Z,12.30
2022-09-30T23:51:24.875Z,12.40
2022-09-30T23:53:52.512Z,12.40
2022-09-30T23:56:20.965Z,12.40
2022-09-30T23:58:50.952Z,12.40
